VA53 weather

Nichols Heliport
White Stone, Virginia, United States

Public forecast

Using degrees Fahrenheit for public forecast. Weather courtesy of forecast.io.

METAR (pilot weather report)

Closest report is Middle Peninsula Regional Airport, 17.5 nm (32.4 km) WSW. Retrieved 2019/07/15 19:35 UTC (0 seconds ago):

KFYJ 151935Z AUTO 33003KT 10SM CLR 32/17 A3008 RMK AO1 T03190168

TAF (pilot weather forecast)

Closest forecast is Newport News Williamsburg International Airport, 31.1 nm (57.6 km) S. Retrieved 2019/07/15 18:22 UTC (51 minutes ago):

TAF KPHF 151720Z 1518/1618 35006KT P6SM SKC FM152100 05005KT P6SM SKC FM152300 08005KT P6SM SKC FM160300 11004KT P6SM SCT150 FM161400 17004KT P6SM SCT080 SCT150